createdAt,value
2022-10-22T00:00:16.683Z,98424.91
2022-10-22T00:03:03.656Z,98414.50
2022-10-22T00:05:30.653Z,98419.94
2022-10-22T00:07:57.435Z,98433.22
2022-10-22T00:10:24.474Z,98439.59
2022-10-22T00:12:51.249Z,98425.59
2022-10-22T00:15:18.314Z,98423.97
2022-10-22T00:17:45.209Z,98425.84
2022-10-22T00:20:12.209Z,98426.69
2022-10-22T00:22:39.062Z,98427.53
2022-10-22T00:25:06.419Z,98429.50
2022-10-22T00:27:33.197Z,98423.50
2022-10-22T00:30:00.221Z,98423.59
2022-10-22T00:32:27.090Z,98412.34
2022-10-22T00:34:54.086Z,98418.53
2022-10-22T00:37:20.973Z,98411.56
2022-10-22T00:39:48.471Z,98409.94
2022-10-22T00:42:20.777Z,98410.06
2022-10-22T00:45:25.547Z,98408.38
2022-10-22T00:47:57.857Z,98406.59
2022-10-22T00:50:39.920Z,98408.22
2022-10-22T00:53:13.224Z,98414.50
2022-10-22T00:55:43.793Z,98411.94
2022-10-22T00:58:12.666Z,98418.06
2022-10-22T01:00:40.033Z,98424.16
2022-10-22T01:03:07.157Z,98419.72
2022-10-22T01:05:51.654Z,98418.88
2022-10-22T01:08:56.021Z,98426.72
2022-10-22T01:11:53.518Z,98423.22
2022-10-22T01:14:41.147Z,98415.34
2022-10-22T01:17:40.311Z,98413.59
2022-10-22T01:20:56.943Z,98411.88
2022-10-22T01:24:17.061Z,98398.81
2022-10-22T01:27:31.779Z,98397.13
2022-10-22T01:30:08.447Z,98391.06
2022-10-22T01:32:51.298Z,98396.81
2022-10-22T01:35:27.972Z,98387.19
2022-10-22T01:38:01.494Z,98385.34
2022-10-22T01:40:30.365Z,98371.34
2022-10-22T01:43:05.711Z,98378.25
2022-10-22T01:45:47.226Z,98384.47
2022-10-22T01:48:32.882Z,98386.25
2022-10-22T01:51:21.491Z,98387.97
2022-10-22T01:53:59.030Z,98402.88
2022-10-22T01:56:53.956Z,98398.53
2022-10-22T01:59:42.247Z,98395.19
2022-10-22T02:05:26.666Z,98393.72
2022-10-22T02:08:06.337Z,98384.88
2022-10-22T02:10:37.433Z,98386.41
2022-10-22T02:13:13.276Z,98389.13
2022-10-22T02:15:44.795Z,98396.34
2022-10-22T02:18:14.315Z,98392.25
2022-10-22T02:20:42.630Z,98371.22
2022-10-22T02:23:11.211Z,98388.03
2022-10-22T02:25:48.709Z,98393.72
2022-10-22T02:28:58.643Z,98395.75
2022-10-22T02:31:33.131Z,98398.75
2022-10-22T02:34:10.168Z,98393.63
2022-10-22T02:36:40.839Z,98390.13
2022-10-22T02:39:10.870Z,98390.44
2022-10-22T02:41:38.218Z,98399.34
2022-10-22T02:44:10.945Z,98411.72
2022-10-22T02:46:40.102Z,98393.25
2022-10-22T02:49:07.313Z,98377.56
2022-10-22T02:51:34.216Z,98363.50
2022-10-22T02:54:01.294Z,98372.13
2022-10-22T02:56:28.899Z,98382.50
2022-10-22T02:58:55.888Z,98389.66
2022-10-22T03:01:22.815Z,98412.56
2022-10-22T03:03:50.022Z,98411.72
2022-10-22T03:06:17.375Z,98415.13
2022-10-22T03:08:44.493Z,98423.88
2022-10-22T03:11:11.419Z,98424.81
2022-10-22T03:13:38.442Z,98430.09
2022-10-22T03:16:05.926Z,98428.38
2022-10-22T03:18:33.010Z,98404.63
2022-10-22T03:21:10.031Z,98398.34
2022-10-22T03:23:40.414Z,98398.34
2022-10-22T03:26:08.416Z,98407.91
2022-10-22T03:28:38.213Z,98418.47
2022-10-22T03:31:05.250Z,98404.41
2022-10-22T03:33:32.303Z,98413.25
2022-10-22T03:36:00.576Z,98414.09
2022-10-22T03:38:28.845Z,98416.81
2022-10-22T03:40:55.818Z,98415.34
2022-10-22T03:43:22.890Z,98405.56
2022-10-22T03:45:49.657Z,98406.44
2022-10-22T03:48:16.603Z,98393.06
2022-10-22T03:50:43.394Z,98387.72
2022-10-22T03:53:10.714Z,98385.94
2022-10-22T03:55:40.683Z,98393.00
2022-10-22T03:58:07.721Z,98392.06
2022-10-22T04:00:35.949Z,98406.19
2022-10-22T04:03:03.310Z,98428.78
2022-10-22T04:05:30.193Z,98431.34
2022-10-22T04:07:57.204Z,98453.53
2022-10-22T04:10:24.006Z,98447.41
2022-10-22T04:12:51.496Z,98423.72
2022-10-22T04:15:18.321Z,98423.72
2022-10-22T04:17:45.274Z,98445.47
2022-10-22T04:20:12.058Z,98456.66
2022-10-22T04:22:39.141Z,98462.94
2022-10-22T04:25:06.323Z,98456.09
2022-10-22T04:27:35.685Z,98436.78
2022-10-22T04:30:05.052Z,98429.00
2022-10-22T04:32:32.217Z,98436.84
2022-10-22T04:34:58.977Z,98440.19
2022-10-22T04:37:25.976Z,98434.78
2022-10-22T04:39:52.807Z,98445.31
2022-10-22T04:42:19.807Z,98444.16
2022-10-22T04:44:46.641Z,98457.22
2022-10-22T04:47:13.690Z,98457.22
2022-10-22T04:49:40.752Z,98460.94
2022-10-22T04:52:07.870Z,98453.31
2022-10-22T04:54:34.735Z,98441.09
2022-10-22T04:57:01.942Z,98439.50
2022-10-22T04:59:28.830Z,98443.13
2022-10-22T05:01:55.961Z,98440.41
2022-10-22T05:04:22.892Z,98433.25
2022-10-22T05:06:49.946Z,98442.00
2022-10-22T05:09:20.146Z,98431.34
2022-10-22T05:11:51.019Z,98429.50
2022-10-22T05:14:24.787Z,98432.06
2022-10-22T05:16:52.767Z,98420.72
2022-10-22T05:19:27.454Z,98428.66
2022-10-22T05:21:57.576Z,98424.16
2022-10-22T05:24:26.332Z,98425.06
2022-10-22T05:26:56.100Z,98431.19
2022-10-22T05:29:23.821Z,98434.00
2022-10-22T05:31:51.039Z,98440.69
2022-10-22T05:34:18.247Z,98451.09
2022-10-22T05:36:46.193Z,98460.75
2022-10-22T05:39:13.408Z,98463.47
2022-10-22T05:41:40.629Z,98462.63
2022-10-22T05:44:07.639Z,98466.03
2022-10-22T05:46:36.501Z,98473.88
2022-10-22T05:49:06.796Z,98468.63
2022-10-22T05:51:37.155Z,98466.91
2022-10-22T05:54:08.210Z,98469.56
2022-10-22T05:56:37.381Z,98475.69
2022-10-22T05:59:04.829Z,98462.63
2022-10-22T06:01:35.411Z,98461.72
2022-10-22T06:04:06.775Z,98467.84
2022-10-22T06:06:36.955Z,98465.13
2022-10-22T06:09:20.171Z,98465.19
2022-10-22T06:11:48.234Z,98465.13
2022-10-22T06:14:16.132Z,98474.78
2022-10-22T06:16:43.716Z,98488.75
2022-10-22T06:19:17.516Z,98489.66
2022-10-22T06:21:45.671Z,98489.59
2022-10-22T06:24:13.225Z,98491.38
2022-10-22T06:26:41.299Z,98487.88
2022-10-22T06:29:08.715Z,98492.09
2022-10-22T06:31:39.076Z,98490.28
2022-10-22T06:34:11.020Z,98493.88
2022-10-22T06:39:06.891Z,98513.91
2022-10-22T06:41:34.163Z,98515.75
2022-10-22T06:44:01.072Z,98516.47
2022-10-22T06:46:28.514Z,98505.84
2022-10-22T06:49:02.534Z,98497.06
2022-10-22T06:51:30.019Z,98497.06
2022-10-22T06:53:58.180Z,98512.72
2022-10-22T06:56:29.307Z,98520.59
2022-10-22T06:58:58.331Z,98524.94
2022-10-22T07:01:33.152Z,98508.41
2022-10-22T07:04:01.618Z,98520.59
2022-10-22T07:06:30.528Z,98515.94
2022-10-22T07:09:00.067Z,98513.22
2022-10-22T07:11:32.737Z,98530.72
2022-10-22T07:14:00.420Z,98530.50
2022-10-22T07:16:31.192Z,98533.97
2022-10-22T07:19:00.818Z,98538.16
2022-10-22T07:21:29.120Z,98549.50
2022-10-22T07:23:56.933Z,98552.16
2022-10-22T07:26:25.448Z,98552.25
2022-10-22T07:28:53.106Z,98548.72
2022-10-22T07:31:21.161Z,98550.53
2022-10-22T07:33:48.306Z,98551.38
2022-10-22T07:36:20.425Z,98559.28
2022-10-22T07:38:54.330Z,98556.72
2022-10-22T07:41:21.696Z,98561.09
2022-10-22T07:43:48.571Z,98557.44
2022-10-22T07:46:15.976Z,98561.72
2022-10-22T07:48:42.918Z,98567.84
2022-10-22T07:51:10.238Z,98572.91
2022-10-22T07:53:37.625Z,98571.91
2022-10-22T07:56:05.716Z,98573.53
2022-10-22T07:58:32.713Z,98568.09
2022-10-22T08:01:03.098Z,98561.81
2022-10-22T08:03:30.100Z,98566.25
2022-10-22T08:05:57.364Z,98572.38
2022-10-22T08:08:27.200Z,98574.09
2022-10-22T08:10:59.387Z,98588.16
2022-10-22T08:13:27.607Z,98586.47
2022-10-22T08:15:57.422Z,98588.22
2022-10-22T08:18:25.715Z,98598.00
2022-10-22T08:20:52.854Z,98594.44
2022-10-22T08:23:24.413Z,98605.72
2022-10-22T08:25:54.617Z,98599.59
2022-10-22T08:28:22.382Z,98594.31
2022-10-22T08:30:49.846Z,98595.16
2022-10-22T08:33:17.039Z,98597.56
2022-10-22T08:35:49.891Z,98597.41
2022-10-22T08:38:16.981Z,98593.84
2022-10-22T08:40:52.256Z,98589.47
2022-10-22T08:43:26.090Z,98598.97
2022-10-22T08:46:31.816Z,98606.06
2022-10-22T08:49:03.162Z,98601.44
2022-10-22T08:51:35.861Z,98610.06
2022-10-22T08:54:22.676Z,98603.91
2022-10-22T08:57:09.080Z,98612.00
2022-10-22T08:59:39.393Z,98602.19
2022-10-22T09:02:24.883Z,98608.19
2022-10-22T09:05:16.092Z,98607.00
2022-10-22T09:07:48.689Z,98612.84
2022-10-22T09:10:24.624Z,98602.97
2022-10-22T09:12:51.760Z,98608.19
2022-10-22T09:15:19.799Z,98608.97
2022-10-22T09:18:06.443Z,98607.13
2022-10-22T09:21:56.148Z,98593.75
2022-10-22T09:24:45.001Z,98589.06
2022-10-22T09:27:32.323Z,98589.63
2022-10-22T09:30:01.803Z,98599.84
2022-10-22T09:32:29.258Z,98589.97
2022-10-22T09:34:58.377Z,98596.75
2022-10-22T09:37:30.040Z,98589.59
2022-10-22T09:40:04.020Z,98585.75
2022-10-22T09:42:33.783Z,98581.94
2022-10-22T09:45:00.924Z,98578.03
2022-10-22T09:48:01.204Z,98580.44
2022-10-22T09:50:50.507Z,98587.88
2022-10-22T09:53:51.916Z,98594.44
2022-10-22T09:56:29.041Z,98600.03
2022-10-22T09:58:58.036Z,98586.34
2022-10-22T10:01:32.658Z,98582.44
2022-10-22T10:04:09.861Z,98585.53
2022-10-22T10:06:40.596Z,98601.00
2022-10-22T10:09:22.342Z,98593.50
2022-10-22T10:12:25.372Z,98592.13
2022-10-22T10:15:17.314Z,98580.44
2022-10-22T10:18:46.178Z,98584.44
2022-10-22T10:22:20.478Z,98600.81
2022-10-22T10:25:12.078Z,98620.72
2022-10-22T10:29:03.177Z,98605.41
2022-10-22T10:31:50.175Z,98590.00
2022-10-22T10:34:50.952Z,98605.66
2022-10-22T10:37:34.234Z,98612.31
2022-10-22T10:41:10.602Z,98597.25
2022-10-22T10:44:16.526Z,98607.69
2022-10-22T10:46:57.774Z,98611.97
2022-10-22T10:49:31.423Z,98601.16
2022-10-22T10:52:41.478Z,98594.81
2022-10-22T10:55:30.787Z,98597.00
2022-10-22T10:58:21.169Z,98589.66
2022-10-22T11:01:08.759Z,98590.34
2022-10-22T11:03:44.719Z,98591.84
2022-10-22T11:06:23.095Z,98595.91
2022-10-22T11:09:07.637Z,98585.03
2022-10-22T11:12:02.802Z,98583.78
2022-10-22T11:14:41.156Z,98580.63
2022-10-22T11:17:41.184Z,98584.53
2022-10-22T11:20:21.299Z,98575.03
2022-10-22T11:23:18.065Z,98576.16
2022-10-22T11:25:50.160Z,98575.44
2022-10-22T11:28:33.750Z,98573.78
2022-10-22T11:31:10.692Z,98576.59
2022-10-22T11:34:35.319Z,98571.56
2022-10-22T11:37:06.224Z,98577.25
2022-10-22T11:39:55.353Z,98574.06
2022-10-22T11:42:40.146Z,98574.75
2022-10-22T11:45:34.612Z,98577.97
2022-10-22T11:48:10.281Z,98574.22
2022-10-22T11:51:00.212Z,98567.78
2022-10-22T11:53:39.299Z,98566.50
2022-10-22T11:56:13.163Z,98560.06
2022-10-22T11:58:43.974Z,98564.44
2022-10-22T12:01:11.161Z,98556.63
2022-10-22T12:03:57.666Z,98566.25
2022-10-22T12:06:28.288Z,98557.94
2022-10-22T12:09:07.299Z,98567.34
2022-10-22T12:11:49.346Z,98566.38
2022-10-22T12:14:26.546Z,98567.78
2022-10-22T12:16:59.266Z,98558.84
2022-10-22T12:19:42.068Z,98571.00
2022-10-22T12:22:34.018Z,98565.56
2022-10-22T12:25:09.599Z,98564.19
2022-10-22T12:27:40.972Z,98573.16
2022-10-22T12:30:37.516Z,98571.03
2022-10-22T12:33:08.373Z,98580.50
2022-10-22T12:35:44.558Z,98578.47
2022-10-22T12:38:22.806Z,98582.75
2022-10-22T12:40:54.146Z,98584.47
2022-10-22T12:43:28.973Z,98584.47
2022-10-22T12:45:57.811Z,98591.38
2022-10-22T12:48:33.729Z,98596.50
2022-10-22T12:51:03.945Z,98585.75
2022-10-22T12:53:37.885Z,98579.44
2022-10-22T12:56:12.248Z,98586.59
2022-10-22T12:58:42.397Z,98583.09
2022-10-22T13:01:17.151Z,98579.69
2022-10-22T13:03:47.768Z,98591.28
2022-10-22T13:06:20.911Z,98579.69
2022-10-22T13:09:00.752Z,98584.03
2022-10-22T13:11:43.243Z,98587.44
2022-10-22T13:14:28.034Z,98591.59
2022-10-22T13:17:19.303Z,98590.13
2022-10-22T13:20:26.499Z,98589.59
2022-10-22T13:23:03.424Z,98593.00
2022-10-22T13:25:34.757Z,98593.84
2022-10-22T13:28:13.785Z,98600.00
2022-10-22T13:31:24.028Z,98596.19
2022-10-22T13:33:56.350Z,98601.31
2022-10-22T13:36:24.644Z,98606.41
2022-10-22T13:38:52.196Z,98601.84
2022-10-22T13:41:27.747Z,98595.34
2022-10-22T13:43:55.450Z,98601.22
2022-10-22T13:46:24.622Z,98602.38
2022-10-22T13:48:55.234Z,98604.63
2022-10-22T13:51:37.482Z,98603.53
2022-10-22T13:54:14.739Z,98594.47
2022-10-22T13:56:41.864Z,98593.63
2022-10-22T13:59:10.485Z,98600.13
2022-10-22T14:01:38.671Z,98598.44
2022-10-22T14:04:10.859Z,98598.56
2022-10-22T14:06:38.044Z,98608.13
2022-10-22T14:09:13.660Z,98591.41
2022-10-22T14:11:40.856Z,98601.31
2022-10-22T14:14:09.257Z,98591.50
2022-10-22T14:16:37.765Z,98593.22
2022-10-22T14:19:09.572Z,98605.56
2022-10-22T14:21:38.060Z,98596.63
2022-10-22T14:24:07.249Z,98593.13
2022-10-22T14:26:36.971Z,98588.53
2022-10-22T14:29:09.324Z,98593.84
2022-10-22T14:31:41.603Z,98609.84
2022-10-22T14:34:13.923Z,98604.50
2022-10-22T14:36:44.476Z,98609.63
2022-10-22T14:39:12.801Z,98604.28
2022-10-22T14:41:41.193Z,98610.56
2022-10-22T14:44:14.477Z,98607.16
2022-10-22T14:46:44.037Z,98603.66
2022-10-22T14:49:11.095Z,98611.75
2022-10-22T14:51:38.271Z,98616.00
2022-10-22T14:54:05.213Z,98621.97
2022-10-22T14:56:32.297Z,98616.63
2022-10-22T14:58:59.328Z,98610.47
2022-10-22T15:01:26.448Z,98617.72
2022-10-22T15:03:53.360Z,98624.00
2022-10-22T15:06:20.385Z,98615.38
2022-10-22T15:08:47.293Z,98609.41
2022-10-22T15:11:14.482Z,98610.56
2022-10-22T15:13:42.202Z,98608.25
2022-10-22T15:16:11.578Z,98611.22
2022-10-22T15:18:38.471Z,98623.03
2022-10-22T15:21:19.206Z,98633.03
2022-10-22T15:23:46.696Z,98638.69
2022-10-22T15:26:14.481Z,98644.22
2022-10-22T15:28:42.748Z,98639.00
2022-10-22T15:31:14.430Z,98650.50
2022-10-22T15:33:43.121Z,98650.50
2022-10-22T15:36:14.842Z,98652.31
2022-10-22T15:38:46.000Z,98656.03
2022-10-22T15:41:13.627Z,98657.09
2022-10-22T15:44:01.985Z,98667.00
2022-10-22T15:46:34.509Z,98664.56
2022-10-22T15:49:02.537Z,98678.81
2022-10-22T15:51:29.586Z,98680.72
2022-10-22T15:53:59.363Z,98680.09
2022-10-22T15:56:29.528Z,98685.59
2022-10-22T15:59:00.960Z,98690.28
2022-10-22T16:01:28.428Z,98694.13
2022-10-22T16:04:02.674Z,98696.97
2022-10-22T16:06:41.200Z,98694.53
2022-10-22T16:09:12.074Z,98695.56
2022-10-22T16:11:40.960Z,98697.56
2022-10-22T16:14:08.149Z,98710.13
2022-10-22T16:16:39.905Z,98709.50
2022-10-22T16:19:07.459Z,98711.50
2022-10-22T16:21:34.492Z,98722.34
2022-10-22T16:24:06.099Z,98727.94
2022-10-22T16:26:34.662Z,98725.47
2022-10-22T16:29:02.265Z,98726.56
2022-10-22T16:31:29.310Z,98732.91
2022-10-22T16:33:57.234Z,98738.31
2022-10-22T16:36:24.675Z,98742.78
2022-10-22T16:38:51.522Z,98735.66
2022-10-22T16:41:23.030Z,98737.38
2022-10-22T16:43:55.314Z,98739.09
2022-10-22T16:46:23.542Z,98748.78
2022-10-22T16:48:52.971Z,98754.88
2022-10-22T16:51:24.090Z,98758.38
2022-10-22T16:53:52.998Z,98760.19
2022-10-22T16:56:20.557Z,98767.19
2022-10-22T16:58:54.810Z,98767.19
2022-10-22T17:01:29.254Z,98772.44
2022-10-22T17:04:00.209Z,98771.56
2022-10-22T17:06:27.930Z,98776.91
2022-10-22T17:08:55.208Z,98776.16
2022-10-22T17:11:24.964Z,98772.72
2022-10-22T17:13:54.484Z,98780.88
2022-10-22T17:16:24.733Z,98781.94
2022-10-22T17:18:54.255Z,98782.13
2022-10-22T17:21:22.331Z,98791.19
2022-10-22T17:23:56.545Z,98785.16
2022-10-22T17:26:26.555Z,98790.63
2022-10-22T17:28:54.743Z,98791.75
2022-10-22T17:31:32.883Z,98799.81
2022-10-22T17:34:02.509Z,98798.22
2022-10-22T17:36:34.855Z,98799.34
2022-10-22T17:39:07.581Z,98799.41
2022-10-22T17:41:37.068Z,98812.91
2022-10-22T17:44:09.297Z,98813.09
2022-10-22T17:46:38.367Z,98815.94
2022-10-22T17:49:15.109Z,98811.66
2022-10-22T17:51:42.230Z,98819.94
2022-10-22T17:54:10.216Z,98822.69
2022-10-22T17:56:40.209Z,98823.69
2022-10-22T17:59:09.905Z,98832.72
2022-10-22T18:01:40.293Z,98834.72
2022-10-22T18:04:08.726Z,98835.84
2022-10-22T18:06:36.517Z,98836.91
2022-10-22T18:09:10.707Z,98846.00
2022-10-22T18:11:39.795Z,98841.63
2022-10-22T18:14:06.855Z,98840.84
2022-10-22T18:16:35.036Z,98847.22
2022-10-22T18:19:02.088Z,98847.31
2022-10-22T18:21:31.583Z,98849.13
2022-10-22T18:23:59.907Z,98854.53
2022-10-22T18:26:27.431Z,98858.19
2022-10-22T18:28:56.903Z,98854.78
2022-10-22T18:31:28.845Z,98852.97
2022-10-22T18:33:56.953Z,98849.56
2022-10-22T18:36:28.256Z,98851.38
2022-10-22T18:39:00.041Z,98856.00
2022-10-22T18:41:30.282Z,98861.41
2022-10-22T18:44:01.807Z,98861.50
2022-10-22T18:46:31.567Z,98872.31
2022-10-22T18:48:59.369Z,98868.13
2022-10-22T18:51:33.098Z,98868.31
2022-10-22T18:54:21.812Z,98870.28
2022-10-22T18:56:49.826Z,98872.25
2022-10-22T18:59:23.237Z,98869.78
2022-10-22T19:01:54.180Z,98864.47
2022-10-22T19:04:21.927Z,98871.66
2022-10-22T19:06:49.373Z,98867.22
2022-10-22T19:09:17.571Z,98869.94
2022-10-22T19:11:46.384Z,98868.22
2022-10-22T19:14:15.855Z,98864.81
2022-10-22T19:16:42.920Z,98868.31
2022-10-22T19:19:15.135Z,98874.59
2022-10-22T19:21:42.729Z,98884.34
2022-10-22T19:24:14.669Z,98888.78
2022-10-22T19:26:42.364Z,98889.63
2022-10-22T19:29:11.054Z,98887.94
2022-10-22T19:31:40.985Z,98891.53
2022-10-22T19:34:09.955Z,98894.28
2022-10-22T19:36:37.018Z,98898.91
2022-10-22T19:39:05.388Z,98900.88
2022-10-22T19:41:34.005Z,98897.56
2022-10-22T19:44:02.013Z,98897.81
2022-10-22T19:46:32.676Z,98907.56
2022-10-22T19:49:02.618Z,98906.88
2022-10-22T19:51:35.741Z,98910.56
2022-10-22T19:54:07.769Z,98912.44
2022-10-22T19:56:37.746Z,98911.59
2022-10-22T19:59:09.318Z,98904.47
2022-10-22T20:01:37.575Z,98904.47
2022-10-22T20:04:04.731Z,98908.03
2022-10-22T20:06:31.916Z,98909.00
2022-10-22T20:08:59.317Z,98917.81
2022-10-22T20:11:30.693Z,98914.31
2022-10-22T20:14:05.355Z,98923.09
2022-10-22T20:16:36.153Z,98911.72
2022-10-22T20:24:25.669Z,98923.34
2022-10-22T20:26:52.740Z,98930.38
2022-10-22T20:29:20.090Z,98928.66
2022-10-22T20:31:48.317Z,98934.06
2022-10-22T20:34:15.740Z,98941.16
2022-10-22T20:36:42.928Z,98936.81
2022-10-22T20:39:15.433Z,98941.25
2022-10-22T20:41:42.800Z,98936.97
2022-10-22T20:45:05.071Z,98941.31
2022-10-22T20:47:44.384Z,98948.44
2022-10-22T20:50:21.298Z,98947.69
2022-10-22T20:52:48.434Z,98945.09
2022-10-22T20:57:43.891Z,98946.13
2022-10-22T21:00:11.945Z,98963.06
2022-10-22T21:02:39.165Z,98954.25
2022-10-22T21:05:06.750Z,98953.38
2022-10-22T21:07:33.795Z,98949.03
2022-10-22T21:10:00.660Z,98956.19
2022-10-22T21:12:27.740Z,98948.34
2022-10-22T21:14:54.679Z,98951.00
2022-10-22T21:17:21.681Z,98966.13
2022-10-22T21:19:48.521Z,98973.31
2022-10-22T21:22:15.479Z,98970.75
2022-10-22T21:24:42.302Z,98974.34
2022-10-22T21:27:09.448Z,98967.31
2022-10-22T21:29:36.496Z,98974.34
2022-10-22T21:32:03.635Z,98976.94
2022-10-22T21:34:33.258Z,98977.84
2022-10-22T21:37:02.316Z,98974.16
2022-10-22T21:39:29.305Z,98968.84
2022-10-22T21:41:56.345Z,98967.00
2022-10-22T21:44:23.240Z,98966.81
2022-10-22T21:46:50.382Z,98968.53
2022-10-22T21:49:17.258Z,98960.50
2022-10-22T21:51:44.626Z,98951.63
2022-10-22T21:54:12.764Z,98961.25
2022-10-22T21:56:41.295Z,98951.69
2022-10-22T21:59:08.899Z,98947.22
2022-10-22T22:01:36.293Z,98951.78
2022-10-22T22:04:03.370Z,98952.78
2022-10-22T22:06:33.321Z,98950.41
2022-10-22T22:09:02.512Z,98947.81
2022-10-22T22:11:30.903Z,98946.09
2022-10-22T22:13:59.094Z,98953.28
2022-10-22T22:16:31.130Z,98962.31
2022-10-22T22:19:08.562Z,98959.06
2022-10-22T22:21:41.096Z,98968.13
2022-10-22T22:24:11.566Z,98956.91
2022-10-22T22:26:39.932Z,98957.16
2022-10-22T22:29:06.869Z,98955.53
2022-10-22T22:31:37.372Z,98959.25
2022-10-22T22:34:12.764Z,98962.06
2022-10-22T22:36:43.723Z,98955.16
2022-10-22T22:39:20.097Z,98951.81
2022-10-22T22:41:47.578Z,98958.88
2022-10-22T22:44:15.235Z,98954.47
2022-10-22T22:46:42.894Z,98957.09
2022-10-22T22:49:10.160Z,98960.53
2022-10-22T22:51:37.138Z,98961.38
2022-10-22T22:54:04.154Z,98953.44
2022-10-22T22:56:34.310Z,98954.38
2022-10-22T22:59:01.960Z,98954.38
2022-10-22T23:01:36.240Z,98954.31
2022-10-22T23:04:12.628Z,98949.94
2022-10-22T23:06:39.893Z,98953.34
2022-10-22T23:09:10.179Z,98962.41
2022-10-22T23:11:38.629Z,98960.75
2022-10-22T23:14:08.342Z,98954.53
2022-10-22T23:16:38.016Z,98958.19
2022-10-22T23:19:06.203Z,98953.66
2022-10-22T23:21:39.045Z,98955.38
2022-10-22T23:24:14.121Z,98947.44
2022-10-22T23:26:46.858Z,98953.50
2022-10-22T23:29:18.029Z,98951.66
2022-10-22T23:31:46.580Z,98949.94
2022-10-22T23:36:50.927Z,98951.66
2022-10-22T23:39:21.938Z,98958.72
2022-10-22T23:41:49.075Z,98939.56
2022-10-22T23:44:16.260Z,98949.38
2022-10-22T23:46:43.412Z,98947.59
2022-10-22T23:49:11.806Z,98950.31
2022-10-22T23:51:40.582Z,98950.31
2022-10-22T23:54:12.688Z,98954.00
2022-10-22T23:56:39.761Z,98953.22
2022-10-22T23:59:08.067Z,98949.75
